Central, Indiana
Current Conditions -  °F | °C
As of 7:29 PM on Monday 24 Nov 2014 (Local Time) from KFTK Reporting Station
Scattered Clouds Scattered Clouds  
Wind Chill: 40°   Ceiling: Unl
Heat Index: 45°   Visibility: 10mi
Dew Point: 34°   Wind: 9mph
Humidity: 66%   Direction: 220°SW
Pressure: 29.89"   Gusts: NA
Location:  38.1°N, 86.16°W
Report Text: KFTK 250029Z AUTO 22008KT 10SM SCT055 07/01 A2989 RMK AO2
Loading
Personal Weather Stations






























Interactive Weather Map New forecast layout! Learn more

10-Day Weather Forecast

Advertisements
Track Severe Weather on mobile